createdAt,value
2023-02-07T00:01:32.289Z,13.07
2023-02-07T00:04:02.782Z,12.32
2023-02-07T00:06:33.176Z,12.18
2023-02-07T00:09:02.559Z,12.25
2023-02-07T00:11:30.880Z,11.57
2023-02-07T00:14:00.477Z,13.35
2023-02-07T00:16:29.084Z,13.90
2023-02-07T00:19:00.034Z,12.98
2023-02-07T00:21:30.393Z,13.57
2023-02-07T00:23:59.333Z,12.70
2023-02-07T00:26:28.359Z,11.63
2023-02-07T00:28:58.024Z,12.93
2023-02-07T00:31:28.895Z,12.20
2023-02-07T00:33:58.577Z,13.10
2023-02-07T00:36:27.849Z,14.13
2023-02-07T00:38:59.027Z,13.80
2023-02-07T00:41:27.674Z,12.23
2023-02-07T00:43:56.177Z,12.57
2023-02-07T00:46:24.505Z,11.60
2023-02-07T00:48:52.702Z,11.40
2023-02-07T00:51:21.242Z,11.60
2023-02-07T00:53:49.874Z,11.68
2023-02-07T00:56:19.263Z,12.43
2023-02-07T00:58:48.643Z,12.10
2023-02-07T01:01:17.758Z,14.05
2023-02-07T01:03:45.937Z,13.15
2023-02-07T01:06:14.702Z,11.63
2023-02-07T01:08:43.071Z,13.02
2023-02-07T01:11:14.261Z,12.23
2023-02-07T01:13:44.650Z,13.15
2023-02-07T01:16:20.228Z,12.27
2023-02-07T01:18:48.993Z,12.57
2023-02-07T01:21:18.521Z,13.70
2023-02-07T01:23:46.797Z,12.50
2023-02-07T01:26:15.085Z,13.60
2023-02-07T01:28:44.679Z,12.57
2023-02-07T01:31:14.234Z,13.10
2023-02-07T01:33:42.580Z,12.80
2023-02-07T01:36:12.799Z,12.40
2023-02-07T01:38:41.405Z,13.25
2023-02-07T01:41:10.289Z,12.30
2023-02-07T01:43:59.579Z,12.35
2023-02-07T01:46:28.422Z,12.98
2023-02-07T01:48:59.399Z,12.90
2023-02-07T01:51:29.202Z,13.13
2023-02-07T01:54:01.351Z,12.75
2023-02-07T01:56:31.874Z,12.75
2023-02-07T01:59:02.554Z,12.05
2023-02-07T02:01:30.712Z,13.65
2023-02-07T02:03:59.204Z,13.70
2023-02-07T02:06:30.324Z,14.07
2023-02-07T02:09:02.258Z,12.70
2023-02-07T02:11:53.480Z,14.43
2023-02-07T02:14:38.214Z,14.15
2023-02-07T02:17:11.790Z,13.15
2023-02-07T02:20:15.430Z,14.05
2023-02-07T02:23:10.403Z,14.18
2023-02-07T02:26:19.708Z,12.88
2023-02-07T02:29:12.681Z,14.80
2023-02-07T02:32:25.309Z,12.88
2023-02-07T02:35:00.601Z,14.73
2023-02-07T02:37:37.365Z,14.43
2023-02-07T02:40:10.032Z,13.43
2023-02-07T02:42:43.554Z,14.55
2023-02-07T02:45:14.404Z,13.18
2023-02-07T02:47:47.669Z,14.40
2023-02-07T02:50:22.324Z,13.80
2023-02-07T02:52:51.497Z,15.73
2023-02-07T02:55:29.070Z,15.02
2023-02-07T02:58:05.881Z,15.48
2023-02-07T03:00:55.258Z,16.25
2023-02-07T03:03:51.690Z,15.20
2023-02-07T03:06:37.098Z,15.82
2023-02-07T03:09:17.192Z,14.27
2023-02-07T03:11:55.745Z,15.50
2023-02-07T03:14:32.309Z,14.82
2023-02-07T03:17:08.264Z,13.65
2023-02-07T03:19:42.058Z,14.52
2023-02-07T03:22:13.735Z,13.80
2023-02-07T03:24:46.322Z,13.63
2023-02-07T03:27:17.449Z,13.60
2023-02-07T03:29:47.932Z,13.30
2023-02-07T03:32:18.194Z,14.35
2023-02-07T03:34:52.269Z,15.40
2023-02-07T03:37:25.334Z,14.27
2023-02-07T03:39:53.507Z,14.07
2023-02-07T03:42:27.694Z,14.70
2023-02-07T03:44:58.201Z,13.25
2023-02-07T03:47:27.695Z,14.52
2023-02-07T03:49:56.125Z,13.40
2023-02-07T03:52:25.552Z,14.32
2023-02-07T03:54:53.739Z,14.77
2023-02-07T03:57:21.833Z,13.75
2023-02-07T03:59:49.954Z,15.35
2023-02-07T04:02:18.497Z,14.82
2023-02-07T04:04:46.607Z,13.23
2023-02-07T04:07:15.086Z,12.55
2023-02-07T04:09:44.543Z,14.35
2023-02-07T04:12:13.028Z,14.73
2023-02-07T04:14:41.116Z,14.52
2023-02-07T04:17:09.602Z,13.18
2023-02-07T04:19:37.685Z,14.43
2023-02-07T04:22:05.761Z,13.40
2023-02-07T04:24:35.830Z,13.13
2023-02-07T04:27:05.310Z,13.38
2023-02-07T04:29:33.379Z,13.30
2023-02-07T04:32:02.812Z,14.55
2023-02-07T04:34:30.918Z,14.88
2023-02-07T04:36:59.031Z,12.82
2023-02-07T04:39:27.355Z,13.85
2023-02-07T04:41:55.519Z,13.73
2023-02-07T04:44:25.255Z,12.35
2023-02-07T04:46:53.432Z,12.80
2023-02-07T04:49:21.675Z,14.07
2023-02-07T04:51:49.740Z,13.15
2023-02-07T04:54:17.836Z,13.80
2023-02-07T04:56:45.896Z,12.88
2023-02-07T04:59:14.015Z,14.25
2023-02-07T05:01:43.444Z,13.98
2023-02-07T05:04:11.614Z,13.63
2023-02-07T05:06:39.798Z,12.13
2023-02-07T05:09:07.862Z,13.60
2023-02-07T05:11:35.913Z,14.02
2023-02-07T05:14:04.073Z,15.90
2023-02-07T05:16:32.165Z,13.88
2023-02-07T05:19:01.804Z,13.85
2023-02-07T05:21:29.986Z,14.65
2023-02-07T05:23:58.097Z,14.50
2023-02-07T05:26:26.135Z,12.68
2023-02-07T05:28:54.410Z,13.25
2023-02-07T05:31:42.958Z,14.13
2023-02-07T05:34:11.575Z,13.32
2023-02-07T05:36:39.658Z,16.35
2023-02-07T05:39:07.825Z,15.88
2023-02-07T05:41:35.885Z,14.90
2023-02-07T05:44:03.963Z,16.40
2023-02-07T05:46:32.006Z,12.77
2023-02-07T05:49:00.119Z,13.15
2023-02-07T05:51:29.530Z,13.80
2023-02-07T05:53:57.599Z,13.05
2023-02-07T05:56:25.671Z,14.98
2023-02-07T05:58:53.788Z,13.90
2023-02-07T06:01:21.870Z,15.60
2023-02-07T06:03:49.937Z,14.23
2023-02-07T06:06:18.025Z,292.95
2023-02-07T06:08:47.469Z,274.98
2023-02-07T06:11:15.523Z,240.52
2023-02-07T06:13:43.628Z,44.70
2023-02-07T06:16:11.717Z,41.30
2023-02-07T06:18:39.948Z,41.53
2023-02-07T06:21:08.149Z,60.65
2023-02-07T06:23:36.252Z,18.52
2023-02-07T06:26:05.927Z,17.77
2023-02-07T06:28:34.086Z,15.63
2023-02-07T06:31:02.311Z,14.60
2023-02-07T06:33:30.479Z,16.58
2023-02-07T06:35:58.647Z,18.75
2023-02-07T06:38:26.704Z,17.40
2023-02-07T06:40:54.753Z,18.05
2023-02-07T06:43:24.237Z,16.90
2023-02-07T06:45:52.282Z,15.98
2023-02-07T06:48:20.415Z,14.63
2023-02-07T06:50:51.504Z,31.08
2023-02-07T06:53:19.629Z,15.70
2023-02-07T06:55:47.659Z,27.80
2023-02-07T06:58:15.764Z,16.98
2023-02-07T07:00:45.428Z,41.78
2023-02-07T07:03:15.038Z,23.73
2023-02-07T07:05:43.723Z,16.80
2023-02-07T07:08:15.401Z,15.38
2023-02-07T07:10:43.448Z,16.55
2023-02-07T07:13:11.741Z,23.73
2023-02-07T07:15:40.304Z,15.05
2023-02-07T07:18:10.034Z,13.48
2023-02-07T07:20:38.110Z,16.88
2023-02-07T07:23:06.578Z,18.67
2023-02-07T07:25:34.642Z,17.95
2023-02-07T07:28:02.754Z,14.57
2023-02-07T07:30:31.290Z,16.48
2023-02-07T07:32:59.489Z,35.35
2023-02-07T07:35:29.788Z,17.15
2023-02-07T07:37:57.874Z,21.90
2023-02-07T07:40:25.905Z,27.77
2023-02-07T07:42:54.048Z,29.95
2023-02-07T07:45:22.423Z,14.63
2023-02-07T07:47:50.605Z,19.65
2023-02-07T07:50:18.878Z,34.83
2023-02-07T07:52:48.343Z,28.27
2023-02-07T07:55:16.538Z,18.35
2023-02-07T07:57:44.585Z,15.55
2023-02-07T08:00:14.269Z,22.92
2023-02-07T08:02:42.984Z,15.32
2023-02-07T08:05:13.711Z,20.25
2023-02-07T08:07:42.422Z,26.83
2023-02-07T08:10:11.890Z,21.33
2023-02-07T08:12:40.685Z,18.70
2023-02-07T08:15:10.177Z,15.68
2023-02-07T08:17:38.387Z,14.75
2023-02-07T08:20:07.218Z,17.38
2023-02-07T08:22:35.511Z,17.67
2023-02-07T08:25:03.616Z,76.30
2023-02-07T08:27:33.058Z,207.88
2023-02-07T08:30:01.145Z,87.60
2023-02-07T08:32:29.560Z,134.13
2023-02-07T08:34:57.679Z,19.45
2023-02-07T08:37:25.876Z,19.75
2023-02-07T08:39:53.926Z,21.17
2023-02-07T08:42:22.573Z,20.77
2023-02-07T08:44:52.185Z,17.63
2023-02-07T08:47:20.546Z,18.08
2023-02-07T08:49:48.611Z,17.25
2023-02-07T08:52:16.708Z,18.40
2023-02-07T08:54:44.905Z,19.05
2023-02-07T08:57:12.981Z,34.30
2023-02-07T08:59:41.049Z,18.10
2023-02-07T09:02:12.971Z,18.92
2023-02-07T09:04:42.614Z,16.73
2023-02-07T09:07:10.954Z,18.15
2023-02-07T09:09:39.479Z,15.15
2023-02-07T09:12:08.294Z,15.73
2023-02-07T09:14:36.813Z,13.18
2023-02-07T09:17:05.291Z,15.45
2023-02-07T09:19:35.239Z,13.85
2023-02-07T09:22:03.632Z,15.45
2023-02-07T09:24:31.748Z,16.23
2023-02-07T09:26:59.813Z,15.95
2023-02-07T09:29:28.069Z,18.35
2023-02-07T09:31:56.220Z,21.88
2023-02-07T09:34:24.475Z,26.02
2023-02-07T09:36:53.933Z,18.08
2023-02-07T09:39:22.019Z,18.17
2023-02-07T09:42:00.611Z,29.13
2023-02-07T09:44:42.462Z,17.05
2023-02-07T09:47:15.701Z,17.30
2023-02-07T09:49:47.302Z,21.25
2023-02-07T09:52:21.581Z,25.02
2023-02-07T09:54:52.896Z,16.20
2023-02-07T09:57:26.377Z,22.88
2023-02-07T09:59:59.491Z,15.30
2023-02-07T10:02:33.654Z,16.98
2023-02-07T10:05:06.028Z,15.73
2023-02-07T10:07:35.489Z,14.13
2023-02-07T10:10:03.652Z,11.88
2023-02-07T10:12:57.040Z,11.47
2023-02-07T10:15:51.025Z,14.00
2023-02-07T10:18:43.782Z,13.77
2023-02-07T10:21:20.999Z,15.17
2023-02-07T10:24:05.244Z,24.30
2023-02-07T10:26:38.009Z,14.03
2023-02-07T10:29:24.959Z,12.73
2023-02-07T10:31:56.569Z,13.80
2023-02-07T10:34:26.555Z,13.90
2023-02-07T10:36:58.611Z,12.80
2023-02-07T10:39:33.335Z,13.73
2023-02-07T10:42:01.433Z,10.30
2023-02-07T10:44:29.631Z,11.73
2023-02-07T10:47:01.424Z,11.73
2023-02-07T10:49:31.763Z,11.73
2023-02-07T10:52:03.707Z,13.90
2023-02-07T10:54:51.689Z,12.50
2023-02-07T10:57:21.336Z,14.63
2023-02-07T10:59:50.622Z,12.20
2023-02-07T11:02:48.378Z,13.63
2023-02-07T11:05:41.652Z,12.13
2023-02-07T11:08:23.102Z,10.27
2023-02-07T11:10:56.789Z,11.00
2023-02-07T11:13:28.166Z,10.93
2023-02-07T11:16:00.846Z,10.60
2023-02-07T11:18:43.539Z,10.77
2023-02-07T11:21:27.156Z,9.97
2023-02-07T11:23:58.602Z,10.60
2023-02-07T11:26:28.218Z,11.30
2023-02-07T11:29:06.270Z,10.13
2023-02-07T11:31:38.220Z,9.83
2023-02-07T11:34:12.035Z,11.57
2023-02-07T11:36:40.152Z,10.77
2023-02-07T11:39:17.886Z,9.33
2023-02-07T11:41:55.958Z,9.83
2023-02-07T11:44:27.092Z,9.40
2023-02-07T11:46:59.415Z,8.20
2023-02-07T11:49:29.698Z,8.50
2023-02-07T11:52:01.137Z,8.87
2023-02-07T11:54:30.618Z,9.33
2023-02-07T11:57:06.253Z,8.33
2023-02-07T11:59:36.090Z,8.33
2023-02-07T12:02:18.178Z,8.60
2023-02-07T12:04:46.468Z,9.40
2023-02-07T12:07:19.657Z,11.00
2023-02-07T12:09:51.950Z,9.60
2023-02-07T12:12:26.876Z,8.47
2023-02-07T12:14:59.534Z,8.00
2023-02-07T12:17:33.282Z,9.43
2023-02-07T12:20:09.643Z,8.80
2023-02-07T12:22:53.243Z,7.30
2023-02-07T12:25:30.845Z,7.67
2023-02-07T12:28:05.696Z,14.70
2023-02-07T12:30:39.577Z,9.50
2023-02-07T12:33:12.382Z,9.07
2023-02-07T12:35:56.900Z,7.43
2023-02-07T12:38:27.962Z,7.97
2023-02-07T12:40:59.472Z,8.20
2023-02-07T12:43:31.408Z,7.60
2023-02-07T12:46:19.430Z,7.33
2023-02-07T12:49:20.175Z,7.47
2023-02-07T12:51:57.759Z,6.40
2023-02-07T12:54:39.949Z,7.90
2023-02-07T12:57:16.087Z,7.73
2023-02-07T12:59:58.407Z,7.00
2023-02-07T13:02:38.435Z,8.20
2023-02-07T13:05:26.166Z,6.97
2023-02-07T13:08:05.080Z,8.20
2023-02-07T13:10:39.669Z,8.17
2023-02-07T13:13:17.627Z,8.20
2023-02-07T13:15:52.220Z,9.40
2023-02-07T13:18:25.412Z,8.70
2023-02-07T13:21:02.677Z,8.80
2023-02-07T13:23:34.680Z,8.97
2023-02-07T13:26:06.825Z,11.23
2023-02-07T13:28:43.726Z,9.97
2023-02-07T13:31:18.237Z,9.67
2023-02-07T13:33:49.036Z,30.60
2023-02-07T13:36:23.687Z,11.63
2023-02-07T13:39:00.453Z,9.23
2023-02-07T13:41:34.957Z,8.60
2023-02-07T13:44:10.755Z,9.20
2023-02-07T13:46:59.429Z,10.87
2023-02-07T13:49:42.161Z,10.43
2023-02-07T13:52:14.941Z,13.70
2023-02-07T13:54:50.807Z,10.87
2023-02-07T13:57:41.340Z,10.23
2023-02-07T14:00:18.783Z,11.07
2023-02-07T14:02:52.571Z,11.67
2023-02-07T14:05:24.754Z,12.67
2023-02-07T14:08:01.366Z,11.77
2023-02-07T14:10:48.491Z,9.90
2023-02-07T14:13:33.942Z,9.33
2023-02-07T14:16:06.286Z,8.47
2023-02-07T14:18:45.423Z,7.90
2023-02-07T14:21:41.289Z,8.77
2023-02-07T14:24:20.898Z,8.33
2023-02-07T14:27:06.322Z,7.90
2023-02-07T14:29:57.529Z,7.57
2023-02-07T14:32:31.768Z,8.70
2023-02-07T14:35:05.607Z,8.33
2023-02-07T14:37:47.191Z,8.87
2023-02-07T14:40:25.799Z,8.20
2023-02-07T14:43:00.279Z,7.80
2023-02-07T14:45:31.889Z,8.17
2023-02-07T14:48:00.291Z,7.60
2023-02-07T14:50:33.535Z,8.60
2023-02-07T14:53:06.001Z,7.50
2023-02-07T14:55:42.333Z,7.07
2023-02-07T14:58:26.008Z,8.70
2023-02-07T15:00:59.603Z,8.10
2023-02-07T15:03:30.937Z,6.80
2023-02-07T15:06:02.099Z,8.60
2023-02-07T15:08:32.473Z,8.10
2023-02-07T15:11:03.467Z,8.20
2023-02-07T15:13:33.624Z,7.87
2023-02-07T15:16:05.190Z,8.50
2023-02-07T15:18:36.842Z,11.37
2023-02-07T15:21:06.725Z,8.73
2023-02-07T15:23:34.974Z,8.63
2023-02-07T15:26:07.990Z,10.00
2023-02-07T15:28:36.624Z,9.30
2023-02-07T15:31:06.727Z,9.73
2023-02-07T15:33:39.060Z,11.33
2023-02-07T15:36:28.740Z,10.60
2023-02-07T15:38:57.855Z,11.17
2023-02-07T15:41:26.820Z,11.63
2023-02-07T15:43:59.830Z,11.13
2023-02-07T15:46:43.735Z,10.73
2023-02-07T15:49:11.877Z,13.37
2023-02-07T15:51:43.185Z,11.17
2023-02-07T15:54:17.951Z,11.23
2023-02-07T15:56:49.110Z,11.23
2023-02-07T15:59:29.025Z,12.10
2023-02-07T16:01:58.974Z,12.37
2023-02-07T16:04:27.812Z,11.13
2023-02-07T16:07:01.683Z,12.87
2023-02-07T16:09:41.689Z,11.63
2023-02-07T16:12:42.767Z,10.67
2023-02-07T16:15:26.056Z,10.57
2023-02-07T16:17:54.389Z,12.97
2023-02-07T16:20:22.940Z,11.27
2023-02-07T16:22:53.291Z,10.80
2023-02-07T16:25:23.544Z,13.57
2023-02-07T16:27:53.552Z,13.20
2023-02-07T16:30:25.249Z,14.10
2023-02-07T16:32:53.358Z,13.07
2023-02-07T16:35:23.499Z,11.67
2023-02-07T16:37:53.525Z,12.67
2023-02-07T16:40:23.260Z,14.40
2023-02-07T16:42:54.029Z,14.10
2023-02-07T16:45:24.881Z,11.50
2023-02-07T16:47:53.716Z,13.40
2023-02-07T16:50:23.703Z,13.40
2023-02-07T16:52:56.937Z,11.80
2023-02-07T16:55:27.790Z,14.37
2023-02-07T16:57:58.038Z,13.98
2023-02-07T17:00:27.560Z,12.63
2023-02-07T17:02:55.704Z,14.10
2023-02-07T17:05:24.488Z,13.60
2023-02-07T17:07:53.981Z,11.60
2023-02-07T17:10:24.858Z,12.20
2023-02-07T17:12:54.075Z,12.57
2023-02-07T17:15:22.665Z,12.90
2023-02-07T17:17:52.986Z,14.15
2023-02-07T17:20:24.323Z,13.55
2023-02-07T17:22:54.532Z,12.20
2023-02-07T17:25:24.171Z,12.70
2023-02-07T17:27:52.563Z,12.23
2023-02-07T17:30:22.723Z,13.00
2023-02-07T17:32:50.859Z,13.68
2023-02-07T17:35:20.690Z,13.70
2023-02-07T17:37:50.003Z,11.90
2023-02-07T17:40:28.462Z,12.38
2023-02-07T17:42:56.769Z,13.75
2023-02-07T17:45:26.377Z,12.75
2023-02-07T17:47:56.430Z,10.98
2023-02-07T17:50:26.453Z,14.13
2023-02-07T17:52:54.582Z,14.75
2023-02-07T17:55:24.350Z,12.40
2023-02-07T17:57:52.475Z,13.20
2023-02-07T18:00:22.907Z,11.90
2023-02-07T18:02:51.034Z,13.82
2023-02-07T18:05:19.525Z,13.57
2023-02-07T18:07:50.878Z,13.50
2023-02-07T18:10:21.154Z,14.02
2023-02-07T18:12:50.938Z,13.63
2023-02-07T18:15:19.713Z,13.52
2023-02-07T18:17:48.754Z,13.55
2023-02-07T18:20:22.242Z,13.55
2023-02-07T18:22:50.442Z,13.90
2023-02-07T18:25:18.722Z,13.80
2023-02-07T18:27:47.887Z,13.60
2023-02-07T18:30:18.035Z,15.63
2023-02-07T18:32:46.491Z,15.07
2023-02-07T18:35:14.505Z,15.43
2023-02-07T18:37:42.957Z,16.38
2023-02-07T18:40:12.939Z,16.88
2023-02-07T18:42:41.088Z,16.92
2023-02-07T18:45:10.151Z,18.38
2023-02-07T18:47:39.543Z,16.05
2023-02-07T18:50:08.187Z,16.15
2023-02-07T18:52:36.236Z,17.27
2023-02-07T18:55:05.808Z,19.08
2023-02-07T18:57:33.925Z,17.00
2023-02-07T19:00:02.236Z,17.17
2023-02-07T19:02:30.438Z,17.65
2023-02-07T19:04:59.881Z,16.63
2023-02-07T19:07:28.155Z,16.95
2023-02-07T19:09:56.225Z,15.68
2023-02-07T19:12:24.270Z,16.10
2023-02-07T19:14:52.406Z,15.50
2023-02-07T19:17:20.710Z,16.20
2023-02-07T19:19:48.790Z,14.77
2023-02-07T19:22:30.064Z,15.35
2023-02-07T19:25:02.971Z,15.15
2023-02-07T19:27:31.017Z,16.38
2023-02-07T19:29:59.068Z,13.73
2023-02-07T19:32:27.085Z,16.40
2023-02-07T19:34:55.249Z,14.48
2023-02-07T19:37:24.652Z,19.73
2023-02-07T19:39:55.987Z,15.88
2023-02-07T19:42:24.761Z,13.65
2023-02-07T19:44:52.879Z,14.70
2023-02-07T19:47:20.917Z,15.80
2023-02-07T19:49:51.769Z,16.85
2023-02-07T19:52:20.143Z,14.05
2023-02-07T19:54:50.048Z,16.30
2023-02-07T19:57:18.269Z,14.73
2023-02-07T19:59:48.314Z,15.52
2023-02-07T20:02:16.465Z,17.15
2023-02-07T20:04:44.494Z,14.73
2023-02-07T20:07:12.535Z,16.42
2023-02-07T20:09:40.592Z,15.85
2023-02-07T20:12:10.016Z,16.05
2023-02-07T20:14:38.184Z,15.15
2023-02-07T20:17:07.128Z,14.95
2023-02-07T20:19:35.564Z,14.50
2023-02-07T20:22:03.620Z,14.75
2023-02-07T20:24:31.722Z,16.10
2023-02-07T20:26:59.802Z,14.98
2023-02-07T20:29:29.216Z,13.68
2023-02-07T20:31:57.291Z,15.20
2023-02-07T20:34:25.436Z,15.77
2023-02-07T20:36:53.547Z,15.13
2023-02-07T20:39:23.178Z,15.50
2023-02-07T20:41:51.506Z,15.15
2023-02-07T20:44:21.469Z,13.05
2023-02-07T20:46:51.623Z,13.68
2023-02-07T20:49:22.298Z,14.23
2023-02-07T20:51:51.976Z,14.25
2023-02-07T20:54:23.089Z,13.80
2023-02-07T20:56:51.807Z,13.82
2023-02-07T20:59:22.021Z,14.95
2023-02-07T21:01:51.528Z,15.10
2023-02-07T21:04:19.910Z,13.95
2023-02-07T21:06:47.939Z,14.70
2023-02-07T21:09:16.596Z,14.32
2023-02-07T21:11:46.647Z,14.60
2023-02-07T21:14:16.369Z,15.00
2023-02-07T21:16:44.970Z,16.30
2023-02-07T21:19:14.886Z,13.80
2023-02-07T21:21:43.828Z,13.60
2023-02-07T21:24:11.958Z,15.93
2023-02-07T21:26:40.165Z,15.85
2023-02-07T21:29:09.111Z,17.73
2023-02-07T21:31:37.216Z,18.10
2023-02-07T21:34:06.451Z,15.23
2023-02-07T21:36:38.242Z,15.85
2023-02-07T21:39:10.298Z,16.42
2023-02-07T21:41:40.954Z,14.38
2023-02-07T21:44:09.918Z,13.85
2023-02-07T21:46:39.547Z,14.82
2023-02-07T21:49:10.286Z,15.55
2023-02-07T21:51:39.677Z,15.43
2023-02-07T21:54:07.932Z,15.88
2023-02-07T21:56:39.026Z,15.77
2023-02-07T21:59:09.221Z,14.32
2023-02-07T22:01:37.523Z,13.65
2023-02-07T22:04:10.920Z,13.73
2023-02-07T22:06:43.593Z,13.70
2023-02-07T22:09:14.082Z,14.07
2023-02-07T22:11:42.526Z,12.77
2023-02-07T22:14:11.973Z,14.60
2023-02-07T22:16:40.270Z,14.30
2023-02-07T22:19:09.353Z,14.57
2023-02-07T22:21:38.445Z,16.27
2023-02-07T22:24:08.478Z,15.75
2023-02-07T22:26:36.798Z,15.02
2023-02-07T22:29:05.785Z,15.93
2023-02-07T22:31:36.654Z,13.90
2023-02-07T22:34:07.137Z,16.55
2023-02-07T22:36:38.530Z,16.95
2023-02-07T22:39:08.927Z,14.65
2023-02-07T22:41:37.611Z,16.65
2023-02-07T22:44:06.384Z,16.88
2023-02-07T22:46:34.537Z,15.50
2023-02-07T22:49:02.689Z,17.85
2023-02-07T22:51:33.375Z,15.88
2023-02-07T22:54:03.910Z,16.27
2023-02-07T22:56:34.071Z,15.55
2023-02-07T22:59:02.369Z,15.40
2023-02-07T23:01:32.749Z,15.75
2023-02-07T23:04:02.310Z,17.33
2023-02-07T23:06:32.471Z,15.00
2023-02-07T23:09:00.682Z,15.90
2023-02-07T23:11:29.106Z,22.40
2023-02-07T23:13:58.618Z,21.45
2023-02-07T23:16:28.610Z,22.58
2023-02-07T23:18:58.100Z,16.85
2023-02-07T23:21:27.234Z,15.55
2023-02-07T23:23:57.149Z,15.57
2023-02-07T23:26:26.601Z,23.42
2023-02-07T23:28:54.948Z,17.52
2023-02-07T23:31:26.046Z,17.48
2023-02-07T23:33:54.718Z,15.88
2023-02-07T23:36:23.641Z,16.52
2023-02-07T23:38:52.226Z,15.30
2023-02-07T23:41:20.852Z,15.45
2023-02-07T23:43:48.953Z,14.60
2023-02-07T23:46:18.448Z,14.98
2023-02-07T23:48:47.933Z,13.70
2023-02-07T23:51:16.805Z,16.00
2023-02-07T23:53:46.016Z,14.13
2023-02-07T23:56:16.908Z,15.48
2023-02-07T23:58:46.050Z,16.67
